createdAt,value
2023-02-19T00:00:25.079Z,8.60
2023-02-19T00:02:56.951Z,8.60
2023-02-19T00:05:26.094Z,8.60
2023-02-19T00:07:59.708Z,8.60
2023-02-19T00:10:29.140Z,8.60
2023-02-19T00:12:58.324Z,8.60
2023-02-19T00:15:27.769Z,8.60
2023-02-19T00:17:57.081Z,8.60
2023-02-19T00:20:27.069Z,8.50
2023-02-19T00:22:54.012Z,8.60
2023-02-19T00:25:20.946Z,8.60
2023-02-19T00:27:50.331Z,8.50
2023-02-19T00:30:24.355Z,8.50
2023-02-19T00:32:55.500Z,8.50
2023-02-19T00:35:27.134Z,8.50
2023-02-19T00:37:58.822Z,8.50
2023-02-19T00:40:33.411Z,8.50
2023-02-19T00:43:04.720Z,8.50
2023-02-19T00:45:31.894Z,8.40
2023-02-19T00:48:05.785Z,8.50
2023-02-19T00:50:35.220Z,8.60
2023-02-19T00:53:04.326Z,8.60
2023-02-19T00:55:33.592Z,8.80
2023-02-19T00:58:02.983Z,8.80
2023-02-19T01:00:33.627Z,8.70
2023-02-19T01:03:03.616Z,8.60
2023-02-19T01:05:30.544Z,8.60
2023-02-19T01:08:02.475Z,8.60
2023-02-19T01:10:34.080Z,8.50
2023-02-19T01:13:06.861Z,8.50
2023-02-19T01:15:34.405Z,8.50
2023-02-19T01:18:04.115Z,8.40
2023-02-19T01:20:33.600Z,8.40
2023-02-19T01:23:05.185Z,8.40
2023-02-19T01:25:32.411Z,8.40
2023-02-19T01:27:59.380Z,8.40
2023-02-19T01:30:26.365Z,8.40
2023-02-19T01:32:53.313Z,8.30
2023-02-19T01:35:23.067Z,8.30
2023-02-19T01:37:54.694Z,8.30
2023-02-19T01:40:26.759Z,8.40
2023-02-19T01:42:53.700Z,8.40
2023-02-19T01:45:27.166Z,8.50
2023-02-19T01:48:09.616Z,8.60
2023-02-19T01:50:39.344Z,8.60
2023-02-19T01:53:09.309Z,8.60
2023-02-19T01:55:38.417Z,8.70
2023-02-19T01:58:05.396Z,8.80
2023-02-19T02:00:35.923Z,8.80
2023-02-19T02:03:04.991Z,8.90
2023-02-19T02:05:48.770Z,8.90
2023-02-19T02:08:37.778Z,8.90
2023-02-19T02:11:04.890Z,8.80
2023-02-19T02:13:33.515Z,8.80
2023-02-19T02:16:15.397Z,8.60
2023-02-19T02:18:42.400Z,8.60
2023-02-19T02:21:23.745Z,8.50
2023-02-19T02:24:21.730Z,8.40
2023-02-19T02:26:59.752Z,8.30
2023-02-19T02:29:29.098Z,8.20
2023-02-19T02:32:02.029Z,8.10
2023-02-19T02:34:39.820Z,8.10
2023-02-19T02:37:08.130Z,8.00
2023-02-19T02:39:37.641Z,8.00
2023-02-19T02:42:23.195Z,8.00
2023-02-19T02:45:17.920Z,7.90
2023-02-19T02:47:55.672Z,7.80
2023-02-19T02:50:24.112Z,7.80
2023-02-19T02:53:19.794Z,7.80
2023-02-19T02:55:50.726Z,7.80
2023-02-19T02:58:17.891Z,7.70
2023-02-19T03:01:10.566Z,7.70
2023-02-19T03:03:42.393Z,7.60
2023-02-19T03:06:11.372Z,7.60
2023-02-19T03:08:44.678Z,7.60
2023-02-19T03:11:30.599Z,7.50
2023-02-19T03:14:27.207Z,7.50
2023-02-19T03:17:15.787Z,7.50
2023-02-19T03:19:44.689Z,7.50
2023-02-19T03:22:38.347Z,7.60
2023-02-19T03:25:32.824Z,7.70
2023-02-19T03:28:02.460Z,7.70
2023-02-19T03:30:35.818Z,7.60
2023-02-19T03:33:08.258Z,7.70
2023-02-19T03:35:38.796Z,7.60
2023-02-19T03:38:12.949Z,7.70
2023-02-19T03:40:55.033Z,7.70
2023-02-19T03:43:33.917Z,7.60
2023-02-19T03:46:12.585Z,7.70
2023-02-19T03:48:53.443Z,7.70
2023-02-19T03:51:44.223Z,7.80
2023-02-19T03:54:25.626Z,7.80
2023-02-19T03:57:16.998Z,7.80
2023-02-19T03:59:51.609Z,7.80
2023-02-19T04:02:33.277Z,7.70
2023-02-19T04:05:16.523Z,7.70
2023-02-19T04:07:50.000Z,7.80
2023-02-19T04:10:20.693Z,7.80
2023-02-19T04:12:56.005Z,7.70
2023-02-19T04:15:29.453Z,7.60
2023-02-19T04:18:20.758Z,7.60
2023-02-19T04:20:50.767Z,7.50
2023-02-19T04:23:23.376Z,7.50
2023-02-19T04:25:59.187Z,7.50
2023-02-19T04:28:31.378Z,7.50
2023-02-19T04:31:00.567Z,7.50
2023-02-19T04:33:27.537Z,7.50
2023-02-19T04:35:58.890Z,7.50
2023-02-19T04:38:28.013Z,7.60
2023-02-19T04:40:55.107Z,7.80
2023-02-19T04:43:25.224Z,7.80
2023-02-19T04:45:52.234Z,7.90
2023-02-19T04:48:21.541Z,8.00
2023-02-19T04:50:50.704Z,8.00
2023-02-19T04:53:17.677Z,8.00
2023-02-19T04:55:48.534Z,8.00
2023-02-19T04:58:17.664Z,8.00
2023-02-19T05:00:44.611Z,8.00
2023-02-19T05:03:13.975Z,8.10
2023-02-19T05:05:40.958Z,8.10
2023-02-19T05:08:10.214Z,8.10
2023-02-19T05:10:37.187Z,8.10
2023-02-19T05:13:06.436Z,8.20
2023-02-19T05:15:35.680Z,8.20
2023-02-19T05:18:05.099Z,8.20
2023-02-19T05:20:36.374Z,8.30
2023-02-19T05:23:03.319Z,8.30
2023-02-19T05:25:30.236Z,8.30
2023-02-19T05:28:17.102Z,8.30
2023-02-19T05:30:50.944Z,8.30
2023-02-19T05:33:21.489Z,8.30
2023-02-19T05:35:50.323Z,8.20
2023-02-19T05:38:19.644Z,8.30
2023-02-19T05:40:46.632Z,8.20
2023-02-19T05:43:13.891Z,8.10
2023-02-19T05:45:43.585Z,8.00
2023-02-19T05:48:10.946Z,8.00
2023-02-19T05:50:42.500Z,7.80
2023-02-19T05:53:12.337Z,7.70
2023-02-19T05:55:41.519Z,7.60
2023-02-19T05:58:08.430Z,7.60
2023-02-19T06:00:37.624Z,7.50
2023-02-19T06:03:07.861Z,7.50
2023-02-19T06:05:34.776Z,7.50
2023-02-19T06:08:03.805Z,7.40
2023-02-19T06:10:30.815Z,7.40
2023-02-19T06:12:57.819Z,7.40
2023-02-19T06:15:29.382Z,7.20
2023-02-19T06:17:59.633Z,7.20
2023-02-19T06:20:26.547Z,7.20
2023-02-19T06:22:55.691Z,7.20
2023-02-19T06:25:25.655Z,7.20
2023-02-19T06:27:58.009Z,7.10
2023-02-19T06:30:27.169Z,7.10
2023-02-19T06:32:56.450Z,7.00
2023-02-19T06:35:25.875Z,7.00
2023-02-19T06:37:55.332Z,7.00
2023-02-19T06:40:24.525Z,7.00
2023-02-19T06:42:53.765Z,7.00
2023-02-19T06:45:20.705Z,6.90
2023-02-19T06:47:47.603Z,6.90
2023-02-19T06:50:19.243Z,6.80
2023-02-19T06:52:49.142Z,6.80
2023-02-19T06:55:19.047Z,6.70
2023-02-19T06:57:46.187Z,6.70
2023-02-19T07:00:15.991Z,6.70
2023-02-19T07:02:42.878Z,6.70
2023-02-19T07:05:12.082Z,6.70
2023-02-19T07:07:39.009Z,6.70
2023-02-19T07:10:08.659Z,6.70
2023-02-19T07:12:37.767Z,6.70
2023-02-19T07:15:07.137Z,6.70
2023-02-19T07:17:39.215Z,6.80
2023-02-19T07:20:06.406Z,6.80
2023-02-19T07:22:38.360Z,6.80
2023-02-19T07:25:09.853Z,6.90
2023-02-19T07:27:40.138Z,6.90
2023-02-19T07:30:10.124Z,6.90
2023-02-19T07:32:42.991Z,6.90
2023-02-19T07:35:10.058Z,6.90
2023-02-19T07:37:36.988Z,7.00
2023-02-19T07:40:06.854Z,7.00
2023-02-19T07:42:33.813Z,7.00
2023-02-19T07:45:00.885Z,7.10
2023-02-19T07:47:29.347Z,7.20
2023-02-19T07:49:58.567Z,7.20
2023-02-19T07:52:28.315Z,7.20
2023-02-19T07:54:57.769Z,7.20
2023-02-19T07:57:26.888Z,7.30
2023-02-19T07:59:56.358Z,7.40
2023-02-19T08:02:44.186Z,7.50
2023-02-19T08:05:11.151Z,7.50
2023-02-19T08:07:45.207Z,7.50
2023-02-19T08:10:30.850Z,7.50
2023-02-19T08:13:16.963Z,7.50
2023-02-19T08:15:44.038Z,7.50
2023-02-19T08:18:16.510Z,7.60
2023-02-19T08:20:43.881Z,7.60
2023-02-19T08:23:13.451Z,7.60
2023-02-19T08:25:43.483Z,7.60
2023-02-19T08:28:11.162Z,7.70
2023-02-19T08:30:39.020Z,7.70
2023-02-19T08:33:06.879Z,7.70
2023-02-19T08:35:36.486Z,7.70
2023-02-19T08:38:08.537Z,7.80
2023-02-19T08:40:35.541Z,7.80
2023-02-19T08:43:09.327Z,7.80
2023-02-19T08:45:37.793Z,7.80
2023-02-19T08:48:04.975Z,7.80
2023-02-19T08:50:36.543Z,7.80
2023-02-19T08:53:03.630Z,7.80
2023-02-19T08:55:32.655Z,7.80
2023-02-19T08:58:02.006Z,7.80
2023-02-19T09:00:32.089Z,7.70
2023-02-19T09:03:03.728Z,7.60
2023-02-19T09:05:30.742Z,7.60
2023-02-19T09:08:00.120Z,7.60
2023-02-19T09:10:31.985Z,7.60
2023-02-19T09:13:03.540Z,7.70
2023-02-19T09:15:33.572Z,7.60
2023-02-19T09:18:05.127Z,7.60
2023-02-19T09:20:32.036Z,7.60
2023-02-19T09:22:59.239Z,7.50
2023-02-19T09:25:26.347Z,7.60
2023-02-19T09:28:00.852Z,7.60
2023-02-19T09:30:27.916Z,7.60
2023-02-19T09:33:00.349Z,7.60
2023-02-19T09:35:27.341Z,7.70
2023-02-19T09:38:00.277Z,7.80
2023-02-19T09:40:32.251Z,7.80
2023-02-19T09:43:01.953Z,7.80
2023-02-19T09:45:29.297Z,7.80
2023-02-19T09:47:59.538Z,7.80
2023-02-19T09:50:36.940Z,7.90
2023-02-19T09:53:06.076Z,8.00
2023-02-19T09:55:33.036Z,8.10
2023-02-19T09:58:24.629Z,8.20
2023-02-19T10:00:53.725Z,8.20
2023-02-19T10:03:34.993Z,8.30
2023-02-19T10:06:20.740Z,8.30
2023-02-19T10:08:51.335Z,8.40
2023-02-19T10:11:18.893Z,8.40
2023-02-19T10:13:54.419Z,8.40
2023-02-19T10:16:26.072Z,8.50
2023-02-19T10:18:53.052Z,8.60
2023-02-19T10:21:22.178Z,8.60
2023-02-19T10:23:50.936Z,8.60
2023-02-19T10:26:22.652Z,8.60
2023-02-19T10:28:49.698Z,8.70
2023-02-19T10:31:23.729Z,8.80
2023-02-19T10:33:54.650Z,8.80
2023-02-19T10:36:26.864Z,8.90
2023-02-19T10:38:56.378Z,8.90
2023-02-19T10:41:25.057Z,8.90
2023-02-19T10:43:59.476Z,8.90
2023-02-19T10:46:33.652Z,8.90
2023-02-19T10:49:28.240Z,8.80
2023-02-19T10:52:05.596Z,8.80
2023-02-19T10:54:36.128Z,8.80
2023-02-19T10:57:15.922Z,8.90
2023-02-19T10:59:52.949Z,8.90
2023-02-19T11:02:22.875Z,9.00
2023-02-19T11:05:17.280Z,9.00
2023-02-19T11:07:47.955Z,9.10
2023-02-19T11:10:26.066Z,9.20
2023-02-19T11:12:54.571Z,9.40
2023-02-19T11:15:27.642Z,9.50
2023-02-19T11:18:07.778Z,9.60
2023-02-19T11:20:34.717Z,9.60
2023-02-19T11:23:18.223Z,9.70
2023-02-19T11:25:49.316Z,9.80
2023-02-19T11:28:35.656Z,9.80
2023-02-19T11:31:17.798Z,9.80
2023-02-19T11:33:54.041Z,9.70
2023-02-19T11:36:29.811Z,9.70
2023-02-19T11:38:58.068Z,9.60
2023-02-19T11:41:37.879Z,9.70
2023-02-19T11:44:41.564Z,9.70
2023-02-19T11:47:35.164Z,9.70
2023-02-19T11:50:39.631Z,9.60
2023-02-19T11:53:32.244Z,9.50
2023-02-19T11:56:08.569Z,9.50
2023-02-19T11:58:51.972Z,9.50
2023-02-19T12:01:33.419Z,9.60
2023-02-19T12:04:25.388Z,9.60
2023-02-19T12:07:23.234Z,9.70
2023-02-19T12:09:50.219Z,9.80
2023-02-19T12:12:26.581Z,9.80
2023-02-19T12:15:02.663Z,9.90
2023-02-19T12:17:32.712Z,10.00
2023-02-19T12:20:17.603Z,10.00
2023-02-19T12:23:01.937Z,10.10
2023-02-19T12:25:56.739Z,10.10
2023-02-19T12:29:04.672Z,10.10
2023-02-19T12:31:49.922Z,10.10
2023-02-19T12:34:19.630Z,10.10
2023-02-19T12:37:28.132Z,10.10
2023-02-19T12:40:02.489Z,10.10
2023-02-19T12:42:54.156Z,10.20
2023-02-19T12:45:27.228Z,10.20
2023-02-19T12:48:03.031Z,10.20
2023-02-19T12:50:34.553Z,10.30
2023-02-19T12:53:21.745Z,10.40
2023-02-19T12:55:51.748Z,10.50
2023-02-19T12:58:36.311Z,10.60
2023-02-19T13:01:05.616Z,10.60
2023-02-19T13:03:41.854Z,10.70
2023-02-19T13:06:18.503Z,10.70
2023-02-19T13:09:06.248Z,10.70
2023-02-19T13:11:39.974Z,10.80
2023-02-19T13:14:17.603Z,10.80
2023-02-19T13:16:48.817Z,10.80
2023-02-19T13:19:15.796Z,10.80
2023-02-19T13:22:01.349Z,10.90
2023-02-19T13:24:31.970Z,11.00
2023-02-19T13:27:28.563Z,11.00
2023-02-19T13:30:30.382Z,11.10
2023-02-19T13:33:25.548Z,11.00
2023-02-19T13:36:16.787Z,11.00
2023-02-19T13:38:49.287Z,10.90
2023-02-19T13:41:26.954Z,10.80
2023-02-19T13:43:58.035Z,10.90
2023-02-19T13:46:25.152Z,10.80
2023-02-19T13:49:31.670Z,10.90
2023-02-19T13:52:01.247Z,11.00
2023-02-19T13:54:40.320Z,11.00
2023-02-19T13:57:23.323Z,11.10
2023-02-19T13:59:51.155Z,11.10
2023-02-19T14:02:21.222Z,11.10
2023-02-19T14:04:53.391Z,11.00
2023-02-19T14:07:47.640Z,11.00
2023-02-19T14:10:35.301Z,10.90
2023-02-19T14:13:02.474Z,10.90
2023-02-19T14:15:44.182Z,10.90
2023-02-19T14:18:45.548Z,10.90
2023-02-19T14:21:26.153Z,10.80
2023-02-19T14:23:56.992Z,10.90
2023-02-19T14:26:25.342Z,10.90
2023-02-19T14:28:52.500Z,10.80
2023-02-19T14:31:21.854Z,10.80
2023-02-19T14:33:55.814Z,10.90
2023-02-19T14:36:36.382Z,10.90
2023-02-19T14:39:13.768Z,11.00
2023-02-19T14:41:45.105Z,11.00
2023-02-19T14:44:25.813Z,11.00
2023-02-19T14:47:07.380Z,11.10
2023-02-19T14:49:48.458Z,11.10
2023-02-19T14:52:24.847Z,11.10
2023-02-19T14:55:00.536Z,11.10
2023-02-19T14:57:36.282Z,11.10
2023-02-19T15:00:22.424Z,11.10
2023-02-19T15:02:59.766Z,11.10
2023-02-19T15:05:34.583Z,11.10
2023-02-19T15:08:09.369Z,11.20
2023-02-19T15:10:36.314Z,11.20
2023-02-19T15:13:08.289Z,11.20
2023-02-19T15:15:42.406Z,11.20
2023-02-19T15:18:30.204Z,11.10
2023-02-19T15:21:06.914Z,11.10
2023-02-19T15:23:37.333Z,11.20
2023-02-19T15:26:13.048Z,11.20
2023-02-19T15:28:40.017Z,11.20
2023-02-19T15:31:07.914Z,11.30
2023-02-19T15:33:37.152Z,11.30
2023-02-19T15:36:08.056Z,11.20
2023-02-19T15:38:37.603Z,11.20
2023-02-19T15:41:07.250Z,11.20
2023-02-19T15:43:45.867Z,11.20
2023-02-19T15:46:18.986Z,11.20
2023-02-19T15:48:50.992Z,11.30
2023-02-19T15:51:25.083Z,11.30
2023-02-19T15:53:57.528Z,11.30
2023-02-19T15:56:32.291Z,11.30
2023-02-19T15:59:07.258Z,11.30
2023-02-19T16:01:38.790Z,11.30
2023-02-19T16:04:15.386Z,11.10
2023-02-19T16:07:02.196Z,11.10
2023-02-19T16:09:39.203Z,11.10
2023-02-19T16:12:28.289Z,11.10
2023-02-19T16:14:57.682Z,11.00
2023-02-19T16:17:28.088Z,11.00
2023-02-19T16:19:58.882Z,11.00
2023-02-19T16:22:29.816Z,11.00
2023-02-19T16:25:09.357Z,10.90
2023-02-19T16:27:40.781Z,10.90
2023-02-19T16:30:25.356Z,10.80
2023-02-19T16:33:32.013Z,10.80
2023-02-19T16:36:28.839Z,10.80
2023-02-19T16:39:17.092Z,10.80
2023-02-19T16:41:48.501Z,10.80
2023-02-19T16:44:32.693Z,10.70
2023-02-19T16:47:12.739Z,10.70
2023-02-19T16:49:46.756Z,10.60
2023-02-19T16:52:17.378Z,10.50
2023-02-19T16:54:50.120Z,10.30
2023-02-19T16:57:20.664Z,10.20
2023-02-19T16:59:48.136Z,10.10
2023-02-19T17:02:19.941Z,10.10
2023-02-19T17:04:47.309Z,10.10
2023-02-19T17:07:17.031Z,10.10
2023-02-19T17:09:46.295Z,10.00
2023-02-19T17:12:14.312Z,10.00
2023-02-19T17:14:41.393Z,10.00
2023-02-19T17:17:10.821Z,9.90
2023-02-19T17:19:43.320Z,9.80
2023-02-19T17:22:13.856Z,9.70
2023-02-19T17:24:44.026Z,9.70
2023-02-19T17:27:12.353Z,9.60
2023-02-19T17:29:39.807Z,9.50
2023-02-19T17:32:07.196Z,9.50
2023-02-19T17:34:36.778Z,9.50
2023-02-19T17:37:03.721Z,9.40
2023-02-19T17:39:33.120Z,9.40
2023-02-19T17:42:00.242Z,9.20
2023-02-19T17:44:27.146Z,9.20
2023-02-19T17:46:56.269Z,9.10
2023-02-19T17:49:23.256Z,9.00
2023-02-19T17:51:52.392Z,9.00
2023-02-19T17:54:21.810Z,9.00
2023-02-19T17:56:51.078Z,8.90
2023-02-19T17:59:20.380Z,8.90
2023-02-19T18:01:50.821Z,8.90
2023-02-19T18:04:17.930Z,8.90
2023-02-19T18:06:44.964Z,8.90
2023-02-19T18:09:19.413Z,8.80
2023-02-19T18:11:49.427Z,8.90
2023-02-19T18:14:18.653Z,8.90
2023-02-19T18:16:49.842Z,8.90
2023-02-19T18:19:17.392Z,8.90
2023-02-19T18:21:47.153Z,8.90
2023-02-19T18:24:14.175Z,8.80
2023-02-19T18:26:43.660Z,8.60
2023-02-19T18:29:11.099Z,8.60
2023-02-19T18:31:38.138Z,8.50
2023-02-19T18:34:05.794Z,8.50
2023-02-19T18:36:37.879Z,8.50
2023-02-19T18:39:04.904Z,8.40
2023-02-19T18:41:34.283Z,8.40
2023-02-19T18:44:03.924Z,8.40
2023-02-19T18:46:32.293Z,8.40
2023-02-19T18:48:59.427Z,8.40
2023-02-19T18:51:28.544Z,8.50
2023-02-19T18:53:58.458Z,8.40
2023-02-19T18:56:29.430Z,8.40
2023-02-19T18:58:56.848Z,8.40
2023-02-19T19:01:26.904Z,8.40
2023-02-19T19:03:53.870Z,8.40
2023-02-19T19:06:23.345Z,8.40
2023-02-19T19:08:52.410Z,8.40
2023-02-19T19:11:19.808Z,8.30
2023-02-19T19:13:52.404Z,8.30
2023-02-19T19:16:22.464Z,8.30
2023-02-19T19:18:49.507Z,8.30
2023-02-19T19:21:18.958Z,8.30
2023-02-19T19:23:48.507Z,8.30
2023-02-19T19:26:15.668Z,8.30
2023-02-19T19:28:49.478Z,8.30
2023-02-19T19:31:19.533Z,8.20
2023-02-19T19:33:47.107Z,8.10
2023-02-19T19:36:22.554Z,8.10
2023-02-19T19:38:51.914Z,8.00
2023-02-19T19:41:23.519Z,8.00
2023-02-19T19:43:52.857Z,8.00
2023-02-19T19:46:22.841Z,8.00
2023-02-19T19:48:53.087Z,8.00
2023-02-19T19:51:20.053Z,7.90
2023-02-19T19:53:47.850Z,7.80
2023-02-19T19:56:17.393Z,7.80
2023-02-19T19:58:46.718Z,7.80
2023-02-19T20:01:15.127Z,7.70
2023-02-19T20:03:42.194Z,7.60
2023-02-19T20:06:09.138Z,7.70
2023-02-19T20:08:36.071Z,7.60
2023-02-19T20:11:05.401Z,7.60
2023-02-19T20:13:34.724Z,7.60
2023-02-19T20:16:06.111Z,7.50
2023-02-19T20:18:34.608Z,7.50
2023-02-19T20:21:06.131Z,7.50
2023-02-19T20:23:35.490Z,7.50
2023-02-19T20:26:07.120Z,7.40
2023-02-19T20:28:36.609Z,7.30
2023-02-19T20:31:03.685Z,7.20
2023-02-19T20:33:33.394Z,7.20
2023-02-19T20:36:04.953Z,7.20
2023-02-19T20:38:31.990Z,7.10
2023-02-19T20:40:59.184Z,7.10
2023-02-19T20:43:30.842Z,7.00
2023-02-19T20:45:57.804Z,7.00
2023-02-19T20:48:30.174Z,7.00
2023-02-19T20:50:59.539Z,6.90
2023-02-19T20:53:27.309Z,6.90
2023-02-19T20:55:55.320Z,6.80
2023-02-19T20:58:22.955Z,6.80
2023-02-19T21:00:53.495Z,6.80
2023-02-19T21:03:25.560Z,6.80
2023-02-19T21:05:54.628Z,6.80
2023-02-19T21:08:21.568Z,6.80
2023-02-19T21:10:50.722Z,6.80
2023-02-19T21:13:17.717Z,6.80
2023-02-19T21:15:44.763Z,6.90
2023-02-19T21:18:13.817Z,6.90
2023-02-19T21:20:40.749Z,6.90
2023-02-19T21:23:07.684Z,6.90
2023-02-19T21:25:36.735Z,6.90
2023-02-19T21:28:03.857Z,6.80
2023-02-19T21:30:30.831Z,6.80
2023-02-19T21:33:02.581Z,6.90
2023-02-19T21:35:32.575Z,6.90
2023-02-19T21:37:59.559Z,6.80
2023-02-19T21:40:30.098Z,6.80
2023-02-19T21:42:59.713Z,6.80
2023-02-19T21:45:26.693Z,6.80
2023-02-19T21:47:55.058Z,6.80
2023-02-19T21:50:24.495Z,6.80
2023-02-19T21:52:55.912Z,6.80
2023-02-19T21:55:22.874Z,6.80
2023-02-19T21:57:55.622Z,6.70
2023-02-19T22:00:23.000Z,6.70
2023-02-19T22:02:50.191Z,6.70
2023-02-19T22:05:22.100Z,6.70
2023-02-19T22:07:49.172Z,6.70
2023-02-19T22:10:16.789Z,6.60
2023-02-19T22:12:43.730Z,6.60
2023-02-19T22:15:12.771Z,6.60
2023-02-19T22:17:42.733Z,6.60
2023-02-19T22:20:17.251Z,6.60
2023-02-19T22:22:44.230Z,6.60
2023-02-19T22:25:11.173Z,6.60
2023-02-19T22:27:38.173Z,6.60
2023-02-19T22:30:05.985Z,6.50
2023-02-19T22:32:35.585Z,6.50
2023-02-19T22:35:05.177Z,6.50
2023-02-19T22:37:32.163Z,6.50
2023-02-19T22:39:59.130Z,6.50
2023-02-19T22:42:26.078Z,6.40
2023-02-19T22:44:55.316Z,6.40
2023-02-19T22:47:22.265Z,6.40
2023-02-19T22:49:51.636Z,6.40
2023-02-19T22:52:21.552Z,6.40
2023-02-19T22:54:52.661Z,6.40
2023-02-19T22:57:19.717Z,6.40
2023-02-19T22:59:46.818Z,6.50
2023-02-19T23:02:15.912Z,6.50
2023-02-19T23:04:45.256Z,6.50
2023-02-19T23:07:12.295Z,6.50
2023-02-19T23:09:41.887Z,6.50
2023-02-19T23:12:10.296Z,6.60
2023-02-19T23:14:42.416Z,6.60
2023-02-19T23:17:09.358Z,6.60
2023-02-19T23:19:36.788Z,6.60
2023-02-19T23:22:06.279Z,6.60
2023-02-19T23:24:36.192Z,6.50
2023-02-19T23:27:03.206Z,6.50
2023-02-19T23:29:30.899Z,6.40
2023-02-19T23:32:00.403Z,6.40
2023-02-19T23:34:29.841Z,6.40
2023-02-19T23:37:00.210Z,6.30
2023-02-19T23:39:30.041Z,6.30
2023-02-19T23:42:01.868Z,6.30
2023-02-19T23:44:28.813Z,6.30
2023-02-19T23:46:55.762Z,6.20
2023-02-19T23:49:22.757Z,6.20
2023-02-19T23:51:49.643Z,6.20
2023-02-19T23:54:18.722Z,6.20
2023-02-19T23:56:48.181Z,6.10
2023-02-19T23:59:15.615Z,6.10
